createdAt,value
2023-03-18T00:00:12.365Z,34.50
2023-03-18T00:03:00.798Z,34.52
2023-03-18T00:05:31.242Z,34.54
2023-03-18T00:07:59.565Z,34.41
2023-03-18T00:10:28.303Z,34.37
2023-03-18T00:12:56.566Z,34.51
2023-03-18T00:15:25.387Z,34.72
2023-03-18T00:17:54.735Z,34.61
2023-03-18T00:20:38.644Z,34.49
2023-03-18T00:23:08.781Z,34.52
2023-03-18T00:25:38.001Z,34.11
2023-03-18T00:28:07.230Z,34.66
2023-03-18T00:30:39.054Z,34.43
2023-03-18T00:33:07.550Z,34.55
2023-03-18T00:35:36.625Z,34.47
2023-03-18T00:38:07.689Z,34.39
2023-03-18T00:40:53.837Z,34.44
2023-03-18T00:43:29.601Z,34.47
2023-03-18T00:45:58.455Z,34.48
2023-03-18T00:48:27.005Z,34.54
2023-03-18T00:50:56.167Z,34.38
2023-03-18T00:53:26.320Z,34.52
2023-03-18T00:55:55.534Z,34.70
2023-03-18T00:58:24.778Z,34.25
2023-03-18T01:00:53.851Z,34.40
2023-03-18T01:03:26.056Z,34.36
2023-03-18T01:05:54.573Z,34.28
2023-03-18T01:08:23.177Z,34.29
2023-03-18T01:10:54.309Z,34.34
2023-03-18T01:13:24.126Z,34.33
2023-03-18T01:15:52.867Z,34.29
2023-03-18T01:18:21.236Z,34.30
2023-03-18T01:20:50.417Z,34.21
2023-03-18T01:23:21.477Z,34.17
2023-03-18T01:25:51.257Z,34.19
2023-03-18T01:28:22.951Z,34.31
2023-03-18T01:30:51.852Z,34.22
2023-03-18T01:33:22.426Z,34.20
2023-03-18T01:35:56.219Z,34.08
2023-03-18T01:38:31.534Z,34.07
2023-03-18T01:41:08.999Z,33.92
2023-03-18T01:43:41.022Z,33.92
2023-03-18T01:46:38.778Z,34.09
2023-03-18T01:49:29.112Z,34.10
2023-03-18T01:52:18.334Z,33.94
2023-03-18T01:55:21.312Z,34.18
2023-03-18T01:57:50.207Z,34.16
2023-03-18T02:00:20.157Z,34.05
2023-03-18T02:02:50.023Z,33.95
2023-03-18T02:05:22.283Z,34.03
2023-03-18T02:07:51.851Z,34.04
2023-03-18T02:10:31.513Z,33.95
2023-03-18T02:13:07.828Z,34.06
2023-03-18T02:16:01.745Z,34.00
2023-03-18T02:18:42.348Z,33.97
2023-03-18T02:21:44.063Z,33.83
2023-03-18T02:24:47.678Z,33.96
2023-03-18T02:27:30.779Z,33.83
2023-03-18T02:30:11.544Z,33.74
2023-03-18T02:32:40.934Z,33.77
2023-03-18T02:35:11.187Z,33.77
2023-03-18T02:37:40.995Z,33.78
2023-03-18T02:40:31.098Z,33.73
2023-03-18T02:43:28.629Z,33.73
2023-03-18T02:46:41.073Z,33.73
2023-03-18T02:49:10.804Z,33.87
2023-03-18T02:51:39.821Z,33.75
2023-03-18T02:54:16.120Z,33.87
2023-03-18T02:56:44.848Z,33.80
2023-03-18T02:59:13.394Z,33.83
2023-03-18T03:01:43.296Z,33.71
2023-03-18T03:04:12.489Z,33.74
2023-03-18T03:06:41.513Z,33.80
2023-03-18T03:09:11.231Z,33.77
2023-03-18T03:11:39.877Z,33.71
2023-03-18T03:14:15.782Z,33.74
2023-03-18T03:16:47.511Z,33.87
2023-03-18T03:19:17.990Z,33.66
2023-03-18T03:21:46.530Z,33.71
2023-03-18T03:24:16.539Z,33.88
2023-03-18T03:26:45.086Z,33.83
2023-03-18T03:29:13.469Z,33.71
2023-03-18T03:31:43.182Z,33.71
2023-03-18T03:34:12.331Z,33.76
2023-03-18T03:36:40.973Z,33.72
2023-03-18T03:39:09.313Z,33.55
2023-03-18T03:41:38.066Z,33.55
2023-03-18T03:44:06.427Z,33.63
2023-03-18T03:46:35.049Z,33.54
2023-03-18T03:49:03.986Z,33.73
2023-03-18T03:51:32.657Z,33.74
2023-03-18T03:54:01.109Z,33.67
2023-03-18T03:56:31.867Z,33.75
2023-03-18T03:59:00.544Z,33.64
2023-03-18T04:01:47.060Z,33.70
2023-03-18T04:04:15.704Z,33.67
2023-03-18T04:06:44.956Z,33.96
2023-03-18T04:09:13.538Z,33.74
2023-03-18T04:11:43.182Z,33.69
2023-03-18T04:14:11.486Z,33.69
2023-03-18T04:16:40.777Z,33.67
2023-03-18T04:19:11.185Z,33.67
2023-03-18T04:21:39.794Z,33.63
2023-03-18T04:24:08.661Z,33.74
2023-03-18T04:26:37.245Z,33.72
2023-03-18T04:29:06.984Z,33.50
2023-03-18T04:31:35.891Z,33.62
2023-03-18T04:34:04.566Z,33.53
2023-03-18T04:36:33.464Z,33.53
2023-03-18T04:39:02.937Z,33.56
2023-03-18T04:41:31.546Z,33.62
2023-03-18T04:44:03.954Z,33.58
2023-03-18T04:46:41.648Z,33.65
2023-03-18T04:49:10.748Z,33.70
2023-03-18T04:51:40.033Z,33.69
2023-03-18T04:54:16.902Z,33.63
2023-03-18T04:56:47.153Z,33.72
2023-03-18T04:59:15.783Z,33.81
2023-03-18T05:01:44.730Z,33.59
2023-03-18T05:04:14.035Z,33.72
2023-03-18T05:06:48.736Z,33.69
2023-03-18T05:09:19.044Z,33.83
2023-03-18T05:11:47.894Z,34.01
2023-03-18T05:14:29.247Z,33.81
2023-03-18T05:16:58.843Z,33.73
2023-03-18T05:19:28.990Z,33.87
2023-03-18T05:22:09.237Z,33.75
2023-03-18T05:24:38.733Z,33.59
2023-03-18T05:27:08.029Z,33.57
2023-03-18T05:29:42.203Z,32.98
2023-03-18T05:32:33.985Z,33.20
2023-03-18T05:35:06.402Z,33.08
2023-03-18T05:37:44.627Z,32.85
2023-03-18T05:40:14.906Z,32.78
2023-03-18T05:42:56.113Z,32.84
2023-03-18T05:45:36.822Z,32.68
2023-03-18T05:48:09.253Z,32.60
2023-03-18T05:50:49.744Z,32.54
2023-03-18T05:53:22.341Z,32.40
2023-03-18T05:55:56.677Z,32.39
2023-03-18T05:58:31.351Z,32.35
2023-03-18T06:01:15.031Z,32.41
2023-03-18T06:03:43.789Z,32.16
2023-03-18T06:06:12.727Z,32.30
2023-03-18T06:08:41.927Z,31.98
2023-03-18T06:11:11.542Z,32.11
2023-03-18T06:13:40.405Z,32.04
2023-03-18T06:16:09.020Z,31.87
2023-03-18T06:18:39.167Z,32.02
2023-03-18T06:21:09.973Z,32.11
2023-03-18T06:23:39.733Z,31.92
2023-03-18T06:26:08.949Z,32.08
2023-03-18T06:28:46.389Z,32.15
2023-03-18T06:31:17.277Z,32.27
2023-03-18T06:33:46.665Z,32.77
2023-03-18T06:36:17.984Z,32.33
2023-03-18T06:38:50.092Z,32.48
2023-03-18T06:41:19.940Z,32.47
2023-03-18T06:44:13.563Z,32.40
2023-03-18T06:46:43.963Z,32.68
2023-03-18T06:49:15.995Z,32.68
2023-03-18T06:51:51.571Z,32.63
2023-03-18T06:54:21.337Z,32.73
2023-03-18T06:56:50.573Z,32.68
2023-03-18T06:59:23.377Z,32.63
2023-03-18T07:01:52.819Z,32.82
2023-03-18T07:04:24.244Z,32.91
2023-03-18T07:06:54.613Z,32.74
2023-03-18T07:09:25.013Z,32.42
2023-03-18T07:11:56.923Z,32.64
2023-03-18T07:14:28.719Z,32.61
2023-03-18T07:16:57.724Z,32.69
2023-03-18T07:19:26.493Z,32.69
2023-03-18T07:21:55.857Z,32.59
2023-03-18T07:24:24.659Z,32.65
2023-03-18T07:26:53.746Z,32.93
2023-03-18T07:29:22.622Z,32.82
2023-03-18T07:31:51.429Z,32.79
2023-03-18T07:34:21.615Z,32.81
2023-03-18T07:36:49.996Z,32.87
2023-03-18T07:39:18.725Z,32.87
2023-03-18T07:41:47.193Z,33.09
2023-03-18T07:44:22.976Z,33.21
2023-03-18T07:46:51.704Z,33.42
2023-03-18T07:49:20.809Z,33.31
2023-03-18T07:51:49.149Z,33.37
2023-03-18T07:54:18.211Z,33.43
2023-03-18T07:56:46.851Z,33.33
2023-03-18T07:59:18.519Z,33.46
2023-03-18T08:01:47.710Z,32.54
2023-03-18T08:04:16.681Z,33.82
2023-03-18T08:06:45.192Z,33.63
2023-03-18T08:09:14.115Z,33.30
2023-03-18T08:11:43.482Z,33.42
2023-03-18T08:14:12.458Z,32.54
2023-03-18T08:16:40.969Z,33.58
2023-03-18T08:19:09.638Z,33.48
2023-03-18T08:21:38.245Z,33.51
2023-03-18T08:24:09.753Z,33.27
2023-03-18T08:26:38.129Z,33.34
2023-03-18T08:29:07.051Z,33.47
2023-03-18T08:31:35.475Z,33.33
2023-03-18T08:34:04.131Z,33.23
2023-03-18T08:36:32.420Z,33.34
2023-03-18T08:39:01.060Z,33.24
2023-03-18T08:41:29.337Z,33.29
2023-03-18T08:43:59.372Z,33.48
2023-03-18T08:46:27.666Z,33.29
2023-03-18T08:48:57.088Z,33.51
2023-03-18T08:51:25.800Z,33.42
2023-03-18T08:53:54.872Z,33.51
2023-03-18T08:56:23.263Z,33.49
2023-03-18T08:58:52.029Z,33.61
2023-03-18T09:01:22.529Z,33.44
2023-03-18T09:03:52.033Z,33.66
2023-03-18T09:06:21.452Z,33.76
2023-03-18T09:08:50.492Z,33.63
2023-03-18T09:11:18.881Z,33.49
2023-03-18T09:13:47.664Z,33.53
2023-03-18T09:16:16.220Z,33.71
2023-03-18T09:18:47.082Z,33.55
2023-03-18T09:21:17.403Z,33.75
2023-03-18T09:23:46.172Z,33.83
2023-03-18T09:26:14.971Z,33.87
2023-03-18T09:28:43.612Z,33.77
2023-03-18T09:31:13.400Z,33.74
2023-03-18T09:33:43.499Z,33.92
2023-03-18T09:36:11.894Z,33.55
2023-03-18T09:38:41.608Z,33.61
2023-03-18T09:42:00.328Z,33.55
2023-03-18T09:44:36.308Z,33.34
2023-03-18T09:47:46.515Z,33.02
2023-03-18T09:50:38.361Z,33.19
2023-03-18T09:53:46.066Z,33.15
2023-03-18T09:56:24.808Z,32.98
2023-03-18T09:59:17.549Z,32.89
2023-03-18T10:01:48.726Z,33.07
2023-03-18T10:04:39.030Z,34.14
2023-03-18T10:07:17.956Z,34.72
2023-03-18T10:09:50.758Z,34.46
2023-03-18T10:12:22.330Z,34.28
2023-03-18T10:15:18.570Z,34.13
2023-03-18T10:18:19.440Z,33.95
2023-03-18T10:21:19.960Z,33.90
2023-03-18T10:24:53.558Z,34.04
2023-03-18T10:27:31.739Z,34.48
2023-03-18T10:30:30.440Z,34.78
2023-03-18T10:33:36.710Z,34.38
2023-03-18T10:36:48.630Z,33.98
2023-03-18T10:39:19.672Z,33.66
2023-03-18T10:41:50.318Z,33.65
2023-03-18T10:44:19.795Z,33.60
2023-03-18T10:46:48.484Z,33.65
2023-03-18T10:49:24.074Z,33.55
2023-03-18T10:52:15.983Z,33.80
2023-03-18T10:54:52.764Z,33.70
2023-03-18T10:57:22.147Z,33.75
2023-03-18T10:59:52.288Z,34.17
2023-03-18T11:02:34.822Z,33.83
2023-03-18T11:05:24.058Z,33.90
2023-03-18T11:08:01.811Z,33.86
2023-03-18T11:10:40.604Z,33.71
2023-03-18T11:13:20.726Z,33.70
2023-03-18T11:15:53.315Z,33.62
2023-03-18T11:18:24.796Z,33.93
2023-03-18T11:21:03.736Z,33.87
2023-03-18T11:24:08.983Z,33.99
2023-03-18T11:26:56.168Z,34.12
2023-03-18T11:29:33.392Z,34.08
2023-03-18T11:32:02.203Z,34.20
2023-03-18T11:34:33.503Z,33.76
2023-03-18T11:37:06.673Z,34.02
2023-03-18T11:39:37.744Z,34.00
2023-03-18T11:42:22.167Z,33.95
2023-03-18T11:44:54.745Z,34.25
2023-03-18T11:47:28.233Z,34.40
2023-03-18T11:49:57.644Z,34.34
2023-03-18T11:53:00.989Z,35.77
2023-03-18T11:55:38.728Z,34.96
2023-03-18T11:58:46.910Z,35.06
2023-03-18T12:01:27.279Z,35.18
2023-03-18T12:04:25.827Z,35.31
2023-03-18T12:07:20.779Z,35.67
2023-03-18T12:10:26.444Z,35.44
2023-03-18T12:13:13.922Z,35.81
2023-03-18T12:16:11.139Z,36.00
2023-03-18T12:18:45.518Z,35.72
2023-03-18T12:21:35.179Z,35.89
2023-03-18T12:24:28.412Z,34.98
2023-03-18T12:27:54.282Z,34.59
2023-03-18T12:30:55.923Z,34.95
2023-03-18T12:33:59.483Z,34.90
2023-03-18T12:36:37.305Z,34.76
2023-03-18T12:39:36.842Z,34.61
2023-03-18T12:42:14.735Z,34.74
2023-03-18T12:45:02.312Z,34.45
2023-03-18T12:47:41.663Z,34.57
2023-03-18T12:50:25.681Z,34.71
2023-03-18T12:53:01.103Z,34.45
2023-03-18T12:55:35.016Z,34.37
2023-03-18T12:58:18.784Z,34.55
2023-03-18T13:01:10.800Z,34.37
2023-03-18T13:03:41.805Z,34.30
2023-03-18T13:06:31.978Z,34.39
2023-03-18T13:09:27.061Z,34.32
2023-03-18T13:12:14.739Z,34.27
2023-03-18T13:15:18.238Z,34.30
2023-03-18T13:17:46.902Z,33.87
2023-03-18T13:20:24.534Z,33.69
2023-03-18T13:23:16.147Z,33.65
2023-03-18T13:26:11.989Z,33.64
2023-03-18T13:29:08.181Z,33.44
2023-03-18T13:32:17.430Z,33.13
2023-03-18T13:35:23.052Z,33.46
2023-03-18T13:38:25.638Z,33.58
2023-03-18T13:41:40.475Z,33.90
2023-03-18T13:44:23.629Z,33.46
2023-03-18T13:47:20.465Z,33.43
2023-03-18T13:49:49.562Z,33.18
2023-03-18T13:52:36.372Z,33.57
2023-03-18T13:55:39.922Z,33.55
2023-03-18T13:58:36.736Z,33.52
2023-03-18T14:01:24.358Z,33.48
2023-03-18T14:04:15.703Z,33.29
2023-03-18T14:06:53.928Z,33.02
2023-03-18T14:09:31.727Z,33.29
2023-03-18T14:12:19.153Z,33.28
2023-03-18T14:14:56.965Z,32.96
2023-03-18T14:17:29.060Z,33.39
2023-03-18T14:19:57.494Z,33.19
2023-03-18T14:22:35.788Z,33.25
2023-03-18T14:25:22.766Z,32.81
2023-03-18T14:27:58.832Z,32.82
2023-03-18T14:30:30.346Z,32.77
2023-03-18T14:33:06.140Z,32.30
2023-03-18T14:36:25.547Z,32.37
2023-03-18T14:39:03.736Z,32.43
2023-03-18T14:41:32.862Z,32.75
2023-03-18T14:44:24.471Z,32.69
2023-03-18T14:46:58.549Z,33.08
2023-03-18T14:49:54.896Z,33.14
2023-03-18T14:52:39.068Z,33.41
2023-03-18T14:55:31.317Z,32.94
2023-03-18T14:57:59.986Z,32.87
2023-03-18T15:00:31.244Z,32.80
2023-03-18T15:03:09.800Z,33.04
2023-03-18T15:05:41.121Z,32.99
2023-03-18T15:08:46.304Z,32.93
2023-03-18T15:11:16.743Z,33.14
2023-03-18T15:13:45.243Z,33.16
2023-03-18T15:16:18.990Z,32.98
2023-03-18T15:18:53.068Z,32.89
2023-03-18T15:21:30.807Z,32.88
2023-03-18T15:24:03.809Z,32.57
2023-03-18T15:26:40.587Z,32.57
2023-03-18T15:29:38.759Z,32.51
2023-03-18T15:32:32.297Z,32.07
2023-03-18T15:35:28.830Z,32.22
2023-03-18T15:38:28.241Z,32.43
2023-03-18T15:41:11.726Z,33.01
2023-03-18T15:43:45.255Z,32.74
2023-03-18T15:46:32.632Z,32.67
2023-03-18T15:49:03.354Z,32.51
2023-03-18T15:51:45.148Z,32.62
2023-03-18T15:54:28.773Z,32.57
2023-03-18T15:56:58.408Z,32.54
2023-03-18T15:59:31.352Z,32.29
2023-03-18T16:01:59.912Z,32.15
2023-03-18T16:04:33.130Z,32.26
2023-03-18T16:07:01.370Z,32.44
2023-03-18T16:09:30.370Z,32.19
2023-03-18T16:12:10.541Z,32.15
2023-03-18T16:14:42.663Z,32.28
2023-03-18T16:17:15.951Z,32.39
2023-03-18T16:19:45.852Z,32.12
2023-03-18T16:22:14.564Z,32.13
2023-03-18T16:24:44.152Z,32.32
2023-03-18T16:27:39.488Z,32.27
2023-03-18T16:30:26.216Z,32.35
2023-03-18T16:32:54.775Z,31.77
2023-03-18T16:35:31.034Z,31.52
2023-03-18T16:38:00.617Z,32.18
2023-03-18T16:40:31.524Z,32.52
2023-03-18T16:42:59.782Z,32.86
2023-03-18T16:45:32.459Z,33.38
2023-03-18T16:48:07.000Z,33.77
2023-03-18T16:50:38.952Z,33.81
2023-03-18T16:53:24.706Z,34.19
2023-03-18T16:55:56.296Z,34.52
2023-03-18T16:58:35.549Z,34.71
2023-03-18T17:01:07.522Z,34.73
2023-03-18T17:03:36.272Z,34.79
2023-03-18T17:06:06.959Z,34.72
2023-03-18T17:08:36.745Z,34.96
2023-03-18T17:11:05.642Z,35.39
2023-03-18T17:13:34.972Z,35.10
2023-03-18T17:16:04.569Z,35.51
2023-03-18T17:18:33.393Z,35.41
2023-03-18T17:21:03.942Z,35.58
2023-03-18T17:23:32.759Z,35.65
2023-03-18T17:26:17.063Z,35.56
2023-03-18T17:28:46.461Z,35.96
2023-03-18T17:31:15.344Z,35.92
2023-03-18T17:33:43.750Z,36.13
2023-03-18T17:36:12.649Z,35.98
2023-03-18T17:38:41.168Z,36.16
2023-03-18T17:41:19.519Z,36.19
2023-03-18T17:43:47.871Z,36.46
2023-03-18T17:46:16.598Z,36.34
2023-03-18T17:48:45.688Z,36.37
2023-03-18T17:51:20.087Z,36.39
2023-03-18T17:53:50.314Z,36.51
2023-03-18T17:56:19.557Z,36.47
2023-03-18T17:58:50.537Z,36.62
2023-03-18T18:01:27.473Z,36.50
2023-03-18T18:03:56.529Z,36.58
2023-03-18T18:06:29.762Z,36.46
2023-03-18T18:09:02.644Z,36.32
2023-03-18T18:11:44.286Z,36.39
2023-03-18T18:14:26.211Z,36.48
2023-03-18T18:16:59.776Z,36.42
2023-03-18T18:19:29.057Z,36.32
2023-03-18T18:21:58.945Z,36.27
2023-03-18T18:24:30.925Z,36.49
2023-03-18T18:26:59.736Z,36.57
2023-03-18T18:29:29.730Z,36.47
2023-03-18T18:31:58.547Z,36.48
2023-03-18T18:34:26.905Z,36.30
2023-03-18T18:36:55.766Z,36.33
2023-03-18T18:39:24.092Z,36.52
2023-03-18T18:41:53.100Z,36.51
2023-03-18T18:44:21.949Z,36.48
2023-03-18T18:46:50.683Z,36.49
2023-03-18T18:49:24.411Z,36.59
2023-03-18T18:51:55.003Z,36.54
2023-03-18T18:54:26.655Z,36.58
2023-03-18T18:56:56.228Z,36.79
2023-03-18T18:59:31.918Z,36.74
2023-03-18T19:02:03.655Z,36.66
2023-03-18T19:04:32.113Z,36.97
2023-03-18T19:07:01.694Z,36.84
2023-03-18T19:09:30.218Z,36.89
2023-03-18T19:11:58.859Z,36.98
2023-03-18T19:14:28.679Z,37.08
2023-03-18T19:16:59.198Z,37.11
2023-03-18T19:19:34.585Z,37.09
2023-03-18T19:22:04.590Z,37.03
2023-03-18T19:24:36.904Z,37.21
2023-03-18T19:27:20.169Z,37.24
2023-03-18T19:29:48.632Z,37.28
2023-03-18T19:32:19.281Z,37.51
2023-03-18T19:34:48.781Z,37.29
2023-03-18T19:37:20.651Z,37.42
2023-03-18T19:39:49.540Z,37.60
2023-03-18T19:42:18.879Z,37.46
2023-03-18T19:44:47.814Z,37.51
2023-03-18T19:47:28.677Z,37.56
2023-03-18T19:49:57.085Z,37.61
2023-03-18T19:52:27.678Z,37.96
2023-03-18T19:54:56.341Z,37.87
2023-03-18T19:57:28.316Z,38.23
2023-03-18T19:59:58.137Z,38.46
2023-03-18T20:02:31.934Z,38.58
2023-03-18T20:05:03.051Z,39.00
2023-03-18T20:07:33.119Z,39.05
2023-03-18T20:10:01.458Z,38.97
2023-03-18T20:12:42.622Z,39.32
2023-03-18T20:15:20.528Z,39.11
2023-03-18T20:17:50.689Z,39.16
2023-03-18T20:20:32.739Z,39.23
2023-03-18T20:23:12.450Z,39.15
2023-03-18T20:25:43.795Z,39.47
2023-03-18T20:28:18.117Z,39.39
2023-03-18T20:30:47.400Z,39.28
2023-03-18T20:33:16.107Z,39.64
2023-03-18T20:35:46.958Z,39.41
2023-03-18T20:38:26.724Z,39.80
2023-03-18T20:40:55.442Z,39.67
2023-03-18T20:43:28.276Z,39.62
2023-03-18T20:45:58.584Z,39.69
2023-03-18T20:48:28.155Z,39.66
2023-03-18T20:50:57.598Z,39.60
2023-03-18T20:53:28.724Z,39.63
2023-03-18T20:55:57.477Z,39.58
2023-03-18T20:58:27.772Z,39.86
2023-03-18T21:00:56.205Z,39.79
2023-03-18T21:03:29.869Z,39.76
2023-03-18T21:06:00.438Z,39.75
2023-03-18T21:08:29.289Z,39.72
2023-03-18T21:11:01.406Z,39.67
2023-03-18T21:13:33.022Z,39.79
2023-03-18T21:16:02.080Z,39.75
2023-03-18T21:18:30.766Z,39.80
2023-03-18T21:20:59.103Z,39.89
2023-03-18T21:23:29.884Z,39.80
2023-03-18T21:25:58.498Z,39.81
2023-03-18T21:28:30.230Z,39.97
2023-03-18T21:30:58.825Z,39.93
2023-03-18T21:33:34.825Z,40.03
2023-03-18T21:36:03.327Z,40.03
2023-03-18T21:38:32.673Z,40.01
2023-03-18T21:41:01.826Z,40.17
2023-03-18T21:43:38.528Z,40.02
2023-03-18T21:46:12.706Z,39.96
2023-03-18T21:48:41.518Z,40.04
2023-03-18T21:51:38.435Z,40.15
2023-03-18T21:54:20.658Z,40.16
2023-03-18T21:56:48.957Z,39.87
2023-03-18T21:59:17.766Z,40.20
2023-03-18T22:01:46.122Z,40.25
2023-03-18T22:04:14.800Z,40.13
2023-03-18T22:06:43.213Z,40.29
2023-03-18T22:09:12.016Z,40.17
2023-03-18T22:11:40.339Z,40.12
2023-03-18T22:14:12.783Z,40.11
2023-03-18T22:16:41.509Z,40.25
2023-03-18T22:19:10.272Z,40.12
2023-03-18T22:21:38.530Z,40.15
2023-03-18T22:24:11.554Z,40.05
2023-03-18T22:26:40.445Z,40.05
2023-03-18T22:29:09.139Z,40.05
2023-03-18T22:31:37.690Z,40.07
2023-03-18T22:34:22.749Z,40.37
2023-03-18T22:36:50.989Z,40.17
2023-03-18T22:39:19.807Z,40.33
2023-03-18T22:41:48.137Z,40.14
2023-03-18T22:44:22.368Z,40.28
2023-03-18T22:46:50.904Z,40.08
2023-03-18T22:49:19.903Z,40.26
2023-03-18T22:51:48.101Z,39.82
2023-03-18T22:54:18.546Z,40.12
2023-03-18T22:56:46.822Z,40.17
2023-03-18T22:59:15.538Z,40.28
2023-03-18T23:01:43.820Z,40.11
2023-03-18T23:04:12.825Z,40.15
2023-03-18T23:06:41.847Z,40.03
2023-03-18T23:09:10.636Z,39.99
2023-03-18T23:11:39.244Z,40.12
2023-03-18T23:14:10.705Z,40.42
2023-03-18T23:16:39.060Z,40.46
2023-03-18T23:19:07.956Z,39.91
2023-03-18T23:21:36.321Z,40.16
2023-03-18T23:24:05.388Z,40.27
2023-03-18T23:26:33.794Z,40.14
2023-03-18T23:29:03.104Z,40.27
2023-03-18T23:31:31.551Z,39.93
2023-03-18T23:34:00.131Z,40.01
2023-03-18T23:36:28.835Z,40.02
2023-03-18T23:38:57.396Z,39.97
2023-03-18T23:41:25.744Z,40.10
2023-03-18T23:43:54.338Z,39.93
2023-03-18T23:46:22.659Z,40.00
2023-03-18T23:48:51.418Z,40.05
2023-03-18T23:51:19.658Z,39.89
2023-03-18T23:53:48.275Z,39.73
2023-03-18T23:56:17.711Z,39.94
2023-03-18T23:58:46.715Z,39.98
